Time;durP1;ratioP1;P1;durP2;ratioP2;P2;SDS_P1;SDS_P2;PMS_P1;PMS_P2;Temp;Humidity;BMP_temperature;BMP_pressure;BME280_temperature;BME280_humidity;BME280_pressure;Samples;Min_cycle;Max_cycle;Signal;HPM_P1;HPM_P2
2021/08/16 00:02:19;;;;;;;12.63;8.63;;;23.40;98.70;;;;;;6337560;28;20539;-63
2021/08/16 00:05:22;;;;;;;9.53;8.30;;;23.20;99.90;;;;;;6337150;28;20214;-63
2021/08/16 00:08:25;;;;;;;12.90;9.47;;;23.10;99.90;;;;;;6336457;28;20221;-63
2021/08/16 00:11:29;;;;;;;10.10;9.20;;;22.90;99.90;;;;;;6343646;28;20232;-63
2021/08/16 00:14:32;;;;;;;10.23;9.17;;;22.70;99.90;;;;;;6349946;28;20233;-63
2021/08/16 00:17:36;;;;;;;10.53;8.60;;;22.50;99.90;;;;;;6350066;28;20289;-63
2021/08/16 00:20:39;;;;;;;9.43;8.50;;;22.40;99.90;;;;;;6350001;28;20230;-63
2021/08/16 00:23:43;;;;;;;9.33;8.30;;;22.40;99.90;;;;;;6349600;28;20254;-63
2021/08/16 00:26:46;;;;;;;10.87;9.87;;;22.40;99.90;;;;;;6349884;27;20233;-63
2021/08/16 00:29:49;;;;;;;11.43;10.43;;;22.30;99.90;;;;;;6349374;28;20270;-63
2021/08/16 00:32:54;;;;;;;9.90;8.87;;;22.20;99.90;;;;;;6349845;27;20228;-63
2021/08/16 00:35:57;;;;;;;11.63;10.60;;;22.20;99.90;;;;;;6349376;28;20229;-63
2021/08/16 00:39:00;;;;;;;10.40;9.50;;;22.10;99.90;;;;;;6349456;28;20233;-63
2021/08/16 00:42:09;;;;;;;10.63;9.63;;;22.10;99.90;;;;;;6349160;28;20221;-63
2021/08/16 00:45:12;;;;;;;13.17;10.57;;;22.10;99.90;;;;;;6350038;28;20206;-63
2021/08/16 00:48:17;;;;;;;10.00;9.10;;;22.00;99.90;;;;;;6349611;28;20226;-63
2021/08/16 00:51:21;;;;;;;11.70;10.60;;;22.00;99.90;;;;;;6349105;28;20209;-63
2021/08/16 00:54:25;;;;;;;10.57;9.47;;;21.90;99.90;;;;;;6349121;28;20225;-63
2021/08/16 00:57:30;;;;;;;11.03;10.03;;;21.90;99.90;;;;;;6349674;28;20236;-63
2021/08/16 01:00:33;;;;;;;11.10;9.90;;;21.90;99.90;;;;;;6350193;28;20241;-63
2021/08/16 01:03:37;;;;;;;10.47;9.47;;;21.90;99.90;;;;;;6349311;28;20308;-63
2021/08/16 01:06:41;;;;;;;9.97;9.17;;;21.80;99.90;;;;;;6349296;28;20697;-63
2021/08/16 01:09:44;;;;;;;9.73;8.90;;;21.90;99.90;;;;;;6349043;28;20232;-63
2021/08/16 01:12:47;;;;;;;10.87;9.77;;;22.00;99.90;;;;;;6349301;28;20621;-63
2021/08/16 01:15:58;;;;;;;11.07;10.07;;;22.00;99.90;;;;;;6349179;28;20221;-63
2021/08/16 01:19:02;;;;;;;11.07;9.90;;;22.00;99.90;;;;;;6349468;28;20287;-63
2021/08/16 01:22:05;;;;;;;10.03;9.23;;;22.00;99.90;;;;;;6349124;28;20233;-63
2021/08/16 01:25:11;;;;;;;10.47;9.57;;;22.10;99.90;;;;;;6349250;28;20702;-63
2021/08/16 01:28:16;;;;;;;11.90;9.20;;;22.10;99.90;;;;;;6349225;28;20240;-63
2021/08/16 01:31:19;;;;;;;10.03;9.07;;;22.10;99.90;;;;;;6349233;28;20240;-63
2021/08/16 01:34:22;;;;;;;10.47;9.47;;;22.10;99.90;;;;;;6348892;28;20577;-63
2021/08/16 01:37:25;;;;;;;9.40;8.60;;;22.10;99.90;;;;;;6348774;28;20626;-63
2021/08/16 01:40:28;;;;;;;9.83;8.80;;;22.20;99.90;;;;;;6348602;28;20706;-63
2021/08/16 01:43:33;;;;;;;10.07;9.27;;;22.20;99.90;;;;;;6344538;28;20229;-63
2021/08/16 01:46:36;;;;;;;9.67;8.67;;;22.20;99.90;;;;;;6348792;28;20240;-63
2021/08/16 01:49:39;;;;;;;10.30;9.30;;;22.20;99.90;;;;;;6349212;28;20232;-63
2021/08/16 01:52:43;;;;;;;10.00;9.07;;;22.20;99.90;;;;;;6346716;28;20562;-63
2021/08/16 01:55:46;;;;;;;9.97;9.17;;;22.10;99.90;;;;;;6349005;28;20274;-63
2021/08/16 01:58:50;;;;;;;9.67;8.70;;;22.10;99.90;;;;;;6348227;28;20582;-63
2021/08/16 02:01:53;;;;;;;9.37;8.50;;;22.00;99.90;;;;;;6349879;28;20233;-63
2021/08/16 02:04:57;;;;;;;10.10;9.20;;;22.10;99.90;;;;;;6353274;28;20225;-63
2021/08/16 02:08:00;;;;;;;10.30;9.17;;;22.10;99.90;;;;;;6352924;28;20611;-63
2021/08/16 02:11:04;;;;;;;11.63;8.70;;;22.10;99.90;;;;;;6353275;28;20248;-63
2021/08/16 02:14:08;;;;;;;9.73;8.80;;;22.00;99.90;;;;;;6353033;28;20278;-63
2021/08/16 02:17:11;;;;;;;9.90;8.90;;;22.00;99.90;;;;;;6353405;27;20229;-63
2021/08/16 02:20:14;;;;;;;9.23;8.43;;;22.00;99.90;;;;;;6352732;28;20255;-63
2021/08/16 02:23:17;;;;;;;10.50;9.50;;;22.00;99.90;;;;;;6352827;28;20308;-63
2021/08/16 02:26:21;;;;;;;9.80;8.90;;;22.10;99.90;;;;;;6352567;28;20565;-63
2021/08/16 02:29:25;;;;;;;11.47;8.70;;;22.00;99.90;;;;;;6351583;28;20290;-63
2021/08/16 02:32:28;;;;;;;14.27;9.50;;;22.00;99.90;;;;;;6350229;28;20853;-63
2021/08/16 02:35:31;;;;;;;8.90;8.03;;;22.00;99.90;;;;;;6350161;28;20593;-63
2021/08/16 02:38:34;;;;;;;8.73;8.00;;;21.80;99.90;;;;;;6350187;28;20230;-62
2021/08/16 02:41:38;;;;;;;9.10;8.40;;;21.80;99.90;;;;;;6350103;28;20226;-63
2021/08/16 02:44:42;;;;;;;11.00;9.13;;;21.80;99.90;;;;;;6350645;28;20221;-63
2021/08/16 02:47:45;;;;;;;8.67;7.87;;;21.80;99.90;;;;;;6352157;28;20299;-63
2021/08/16 02:50:49;;;;;;;8.73;7.83;;;21.80;99.90;;;;;;6352199;28;20695;-63
2021/08/16 02:53:52;;;;;;;9.37;8.03;;;21.70;99.90;;;;;;6351810;28;20248;-63
2021/08/16 02:56:55;;;;;;;8.40;7.20;;;21.60;99.90;;;;;;6351802;28;20667;-63
2021/08/16 03:00:00;;;;;;;7.47;6.73;;;21.50;99.90;;;;;;6351609;28;20241;-63
2021/08/16 03:03:03;;;;;;;7.80;7.07;;;21.60;99.90;;;;;;6352111;28;20240;-63
2021/08/16 03:06:06;;;;;;;8.83;6.20;;;21.50;99.90;;;;;;6351419;27;20229;-63
2021/08/16 03:09:09;;;;;;;10.20;6.43;;;21.60;99.90;;;;;;6351426;28;20229;-63
2021/08/16 03:12:13;;;;;;;8.70;6.57;;;21.60;99.90;;;;;;6351204;28;20209;-63
2021/08/16 03:15:18;;;;;;;8.47;6.03;;;21.60;99.90;;;;;;6351386;28;20509;-63
2021/08/16 03:18:21;;;;;;;6.57;6.07;;;21.60;99.90;;;;;;6351305;27;20752;-63
2021/08/16 03:21:24;;;;;;;6.97;6.37;;;21.60;99.90;;;;;;6351350;28;20287;-63
2021/08/16 03:24:27;;;;;;;6.77;6.17;;;21.60;99.90;;;;;;6351245;27;20651;-63
2021/08/16 03:27:30;;;;;;;10.60;5.87;;;21.60;99.90;;;;;;6351411;28;20233;-63
2021/08/16 03:30:35;;;;;;;7.03;5.90;;;21.60;99.90;;;;;;6351401;27;20238;-63
2021/08/16 03:33:38;;;;;;;6.30;5.80;;;21.60;99.90;;;;;;6351328;28;20225;-63
2021/08/16 03:36:41;;;;;;;6.73;5.57;;;21.60;99.90;;;;;;6351048;28;20244;-63
2021/08/16 03:39:44;;;;;;;7.37;5.90;;;21.60;99.90;;;;;;6350749;27;20687;-63
2021/08/16 03:42:48;;;;;;;6.80;5.63;;;21.50;99.90;;;;;;6350871;28;20247;-63
2021/08/16 03:45:52;;;;;;;6.80;6.13;;;21.40;99.90;;;;;;6350842;28;20233;-63
2021/08/16 03:48:55;;;;;;;7.43;6.67;;;21.40;99.90;;;;;;6350941;28;20308;-63
2021/08/16 03:51:59;;;;;;;7.00;6.30;;;21.30;99.90;;;;;;6331388;28;20265;-63
2021/08/16 03:55:02;;;;;;;6.23;5.13;;;21.30;99.90;;;;;;6325635;28;20241;-63
2021/08/16 03:58:05;;;;;;;6.63;6.10;;;21.20;99.90;;;;;;6324874;28;20230;-64
2021/08/16 04:01:10;;;;;;;5.33;4.83;;;21.20;99.90;;;;;;6325354;28;20241;-64
2021/08/16 04:04:13;;;;;;;6.00;5.50;;;21.20;99.90;;;;;;6324893;28;20575;-64
2021/08/16 04:07:16;;;;;;;5.97;5.43;;;21.20;99.90;;;;;;6324886;28;20244;-63
2021/08/16 04:10:20;;;;;;;6.80;5.57;;;21.20;99.90;;;;;;6325110;28;20240;-63
2021/08/16 04:13:23;;;;;;;6.60;6.00;;;21.20;99.90;;;;;;6324724;28;20226;-64
2021/08/16 04:16:28;;;;;;;9.23;5.80;;;21.10;99.90;;;;;;6324865;28;20573;-63
2021/08/16 04:19:31;;;;;;;6.33;5.73;;;21.10;99.90;;;;;;6324725;28;20233;-64
2021/08/16 04:22:34;;;;;;;6.53;5.40;;;21.10;99.90;;;;;;6324771;28;20237;-64
2021/08/16 04:25:37;;;;;;;7.37;5.77;;;21.10;99.90;;;;;;6324044;28;20576;-64
2021/08/16 04:28:41;;;;;;;6.07;5.53;;;21.10;99.90;;;;;;6324478;28;20234;-64
2021/08/16 04:31:45;;;;;;;7.70;5.50;;;21.10;99.90;;;;;;6324788;28;20266;-64
2021/08/16 04:34:48;;;;;;;6.20;5.40;;;21.20;99.90;;;;;;6324501;28;20615;-64
2021/08/16 04:37:52;;;;;;;5.77;4.93;;;21.20;99.90;;;;;;6324322;28;20234;-63
2021/08/16 04:40:56;;;;;;;9.77;5.97;;;21.30;99.90;;;;;;6324512;28;20226;-64
2021/08/16 04:43:59;;;;;;;8.00;6.50;;;21.30;99.90;;;;;;6323700;28;20238;-64
2021/08/16 04:47:04;;;;;;;9.00;6.07;;;21.30;99.90;;;;;;6323719;28;20671;-63
2021/08/16 04:50:07;;;;;;;5.90;5.30;;;21.30;99.90;;;;;;6323983;28;20679;-64
2021/08/16 04:53:10;;;;;;;7.90;6.20;;;21.30;99.90;;;;;;6323620;28;20250;-64
2021/08/16 04:56:14;;;;;;;7.10;6.37;;;21.40;99.90;;;;;;6315007;28;20579;-63
2021/08/16 04:59:17;;;;;;;6.90;5.70;;;21.40;99.90;;;;;;6323856;28;20711;-63
2021/08/16 05:02:21;;;;;;;6.10;5.60;;;21.40;99.90;;;;;;6324073;28;20242;-62
2021/08/16 05:05:28;;;;;;;7.33;6.00;;;21.50;99.90;;;;;;6323508;28;20245;-62
2021/08/16 05:08:31;;;;;;;5.80;5.30;;;21.60;99.90;;;;;;6323862;28;20715;-61
2021/08/16 05:11:35;;;;;;;10.40;6.93;;;21.80;99.90;;;;;;6323650;28;20229;-64
2021/08/16 05:14:38;;;;;;;10.00;6.17;;;21.90;99.90;;;;;;6323940;28;20230;-62
2021/08/16 05:17:43;;;;;;;6.40;5.77;;;22.20;99.90;;;;;;6323644;28;20242;-62
2021/08/16 05:20:46;;;;;;;7.07;5.87;;;22.40;99.90;;;;;;6323361;28;20241;-62
2021/08/16 05:23:50;;;;;;;5.80;5.30;;;22.60;99.90;;;;;;6323155;28;20565;-62
2021/08/16 05:26:53;;;;;;;7.80;6.10;;;22.80;99.90;;;;;;6323644;28;20230;-62
2021/08/16 05:29:56;;;;;;;6.30;5.80;;;23.00;99.90;;;;;;6323453;28;20291;-62
2021/08/16 05:33:00;;;;;;;7.10;6.50;;;23.20;99.90;;;;;;6323773;28;20230;-62
2021/08/16 05:36:04;;;;;;;6.87;5.57;;;23.40;99.90;;;;;;6323938;28;20241;-62
2021/08/16 05:39:07;;;;;;;6.27;5.27;;;23.70;99.90;;;;;;6328222;28;20683;-62
2021/08/16 05:42:10;;;;;;;6.50;5.43;;;24.10;99.10;;;;;;6328171;28;20234;-62
2021/08/16 05:45:14;;;;;;;10.60;6.10;;;24.40;98.00;;;;;;6328826;28;20210;-63
2021/08/16 05:48:18;;;;;;;6.80;6.10;;;24.70;97.40;;;;;;6328274;28;20639;-62
2021/08/16 05:51:21;;;;;;;9.03;5.30;;;24.90;96.70;;;;;;6327604;28;20233;-62
2021/08/16 05:54:25;;;;;;;6.00;5.40;;;25.10;96.50;;;;;;6328646;28;20205;-63
2021/08/16 05:57:28;;;;;;;6.53;5.67;;;25.30;95.90;;;;;;6323293;28;20233;-63
2021/08/16 06:00:31;;;;;;;5.27;4.77;;;25.30;95.20;;;;;;6328209;28;20307;-63
2021/08/16 06:03:36;;;;;;;5.93;5.37;;;25.10;95.50;;;;;;6327731;28;20730;-63
2021/08/16 06:06:39;;;;;;;8.43;5.60;;;25.50;95.10;;;;;;6327818;28;20243;-63
2021/08/16 06:09:42;;;;;;;10.80;6.03;;;26.20;94.50;;;;;;6327747;28;20226;-63
2021/08/16 06:12:45;;;;;;;8.53;6.70;;;27.20;92.90;;;;;;6327473;28;20237;-63
2021/08/16 06:15:48;;;;;;;8.70;6.47;;;28.00;91.30;;;;;;6327156;28;20221;-64
2021/08/16 06:18:53;;;;;;;9.13;8.10;;;28.30;90.80;;;;;;6325567;28;20346;-64
2021/08/16 06:21:56;;;;;;;9.00;7.37;;;28.60;90.60;;;;;;6325390;28;20229;-64
2021/08/16 06:24:59;;;;;;;10.63;6.63;;;29.30;89.50;;;;;;6325697;28;20286;-64
2021/08/16 06:28:03;;;;;;;9.13;7.53;;;29.80;85.90;;;;;;6324167;28;20291;-64
2021/08/16 06:31:07;;;;;;;8.10;7.30;;;30.30;84.10;;;;;;6324960;28;20760;-64
2021/08/16 06:34:12;;;;;;;7.73;6.83;;;31.00;81.80;;;;;;6327205;28;20222;-64
2021/08/16 06:37:15;;;;;;;8.67;6.90;;;31.60;78.40;;;;;;6326657;28;20370;-64
2021/08/16 06:40:19;;;;;;;7.18;6.53;;;32.20;76.60;;;;;;6326774;28;20236;-65
2021/08/16 06:43:22;;;;;;;7.38;6.65;;;32.60;73.20;;;;;;6334798;28;20740;-64
2021/08/16 06:46:26;;;;;;;13.07;7.57;;;33.30;70.40;;;;;;6335159;28;20213;-64
2021/08/16 06:49:30;;;;;;;7.22;6.47;;;33.80;66.40;;;;;;6338780;28;20662;-64
2021/08/16 06:52:34;;;;;;;9.95;7.28;;;34.10;63.40;;;;;;6339706;28;20232;-64
2021/08/16 06:55:37;;;;;;;9.32;7.78;;;33.50;62.40;;;;;;6337581;28;20551;-64
2021/08/16 06:58:40;;;;;;;9.52;8.07;;;32.70;63.60;;;;;;6337259;28;20240;-64
2021/08/16 07:01:44;;;;;;;11.25;7.45;;;31.80;65.40;;;;;;6336353;28;20217;-64
2021/08/16 07:04:50;;;;;;;8.95;8.00;;;31.00;68.50;;;;;;6326518;28;20313;-64
2021/08/16 07:07:54;;;;;;;10.70;7.80;;;30.30;71.00;;;;;;6351032;28;20682;-64
2021/08/16 07:10:58;;;;;;;7.05;6.35;;;30.60;71.90;;;;;;6351116;28;20247;-65
2021/08/16 07:14:01;;;;;;;10.30;6.93;;;32.30;69.30;;;;;;6351579;28;20235;-64
2021/08/16 07:17:04;;;;;;;7.72;6.90;;;33.90;64.10;;;;;;6351290;28;20243;-63
2021/08/16 07:20:10;;;;;;;6.97;6.35;;;34.60;60.10;;;;;;6350944;28;20675;-64
2021/08/16 07:23:13;;;;;;;7.50;6.82;;;33.70;60.60;;;;;;6350977;28;20233;-64
2021/08/16 07:26:17;;;;;;;7.15;6.50;;;33.20;62.60;;;;;;6350929;28;20221;-64
2021/08/16 07:29:20;;;;;;;8.02;6.20;;;34.50;60.20;;;;;;6351026;28;20225;-64
2021/08/16 07:32:23;;;;;;;6.97;6.38;;;36.00;56.80;;;;;;6351788;28;20641;-65
2021/08/16 07:35:28;;;;;;;5.97;5.47;;;37.50;53.20;;;;;;6345241;28;20235;-63
2021/08/16 07:38:31;;;;;;;9.07;5.85;;;38.40;50.60;;;;;;6326393;28;20236;-65
2021/08/16 07:41:34;;;;;;;11.70;6.28;;;39.60;47.70;;;;;;6328207;28;20587;-64
2021/08/16 07:44:37;;;;;;;6.45;5.85;;;40.80;45.20;;;;;;6338269;28;20304;-64
2021/08/16 07:47:40;;;;;;;9.00;7.18;;;41.70;43.10;;;;;;6337699;28;20217;-64
2021/08/16 07:50:45;;;;;;;9.20;6.07;;;42.70;39.80;;;;;;6336734;28;20228;-64
2021/08/16 07:53:49;;;;;;;8.27;6.60;;;42.80;38.10;;;;;;6336874;28;20674;-64
2021/08/16 07:56:52;;;;;;;7.07;6.28;;;42.80;38.10;;;;;;6337438;28;20225;-64
2021/08/16 07:59:56;;;;;;;9.65;6.95;;;43.80;37.30;;;;;;6335328;28;20221;-64
2021/08/16 08:03:00;;;;;;;8.75;5.65;;;45.00;35.30;;;;;;6331374;28;20235;-64
2021/08/16 08:06:06;;;;;;;8.75;4.93;;;46.00;32.30;;;;;;6324738;28;20236;-66
2021/08/16 08:09:09;;;;;;;8.80;5.18;;;46.90;31.10;;;;;;6323528;28;20679;-65
2021/08/16 08:12:12;;;;;;;6.60;5.68;;;47.70;30.10;;;;;;6317977;28;20229;-63
2021/08/16 08:15:17;;;;;;;5.90;5.13;;;48.60;29.50;;;;;;6299705;28;20206;-63
2021/08/16 08:18:21;;;;;;;8.10;5.00;;;49.00;29.00;;;;;;6299583;28;20224;-66
2021/08/16 08:21:25;;;;;;;7.85;6.00;;;49.50;28.20;;;;;;6322260;28;20206;-63
2021/08/16 08:24:28;;;;;;;6.07;5.30;;;49.20;27.80;;;;;;6318251;28;20223;-63
2021/08/16 08:27:31;;;;;;;5.88;5.28;;;49.40;28.20;;;;;;6333684;28;20238;-62
2021/08/16 08:30:35;;;;;;;6.45;5.43;;;49.90;27.80;;;;;;6337241;28;20694;-62
2021/08/16 08:33:38;;;;;;;5.70;4.97;;;50.50;26.70;;;;;;6336329;28;20594;-62
2021/08/16 08:36:44;;;;;;;5.93;5.38;;;50.80;26.00;;;;;;6323677;28;20233;-62
2021/08/16 08:39:47;;;;;;;7.18;5.22;;;51.00;25.80;;;;;;6332045;28;20243;-62
2021/08/16 08:42:52;;;;;;;5.95;4.75;;;51.90;25.40;;;;;;6330412;28;20232;-62
2021/08/16 08:45:56;;;;;;;5.53;5.03;;;52.00;25.10;;;;;;6324337;28;20244;-62
2021/08/16 08:49:02;;;;;;;4.85;4.53;;;52.60;24.70;;;;;;6300072;28;20230;-63
2021/08/16 08:52:07;;;;;;;5.18;4.68;;;53.40;23.90;;;;;;6298362;28;20576;-63
2021/08/16 08:55:11;;;;;;;5.68;5.18;;;53.60;23.60;;;;;;6299126;28;20226;-63
2021/08/16 08:58:35;;;;;;;5.50;4.25;;;53.30;23.10;;;;;;6305690;28;20685;-63
2021/08/16 09:01:38;;;;;;;5.50;5.10;;;53.30;22.80;;;;;;6323750;28;20222;-63
2021/08/16 09:04:51;;;;;;;5.60;4.10;;;52.90;23.10;;;;;;6323258;28;20308;-63
2021/08/16 09:07:58;;;;;;;5.03;4.55;;;51.80;23.60;;;;;;6330324;28;20236;-64
2021/08/16 09:11:09;;;;;;;4.55;4.22;;;50.80;24.60;;;;;;6328201;28;20221;-64
2021/08/16 09:14:16;;;;;;;5.07;4.68;;;49.70;24.90;;;;;;6343682;28;20300;-64
2021/08/16 09:17:28;;;;;;;4.75;4.35;;;48.70;25.30;;;;;;6334398;28;20227;-64
2021/08/16 09:20:34;;;;;;;5.15;4.75;;;46.90;26.40;;;;;;6344711;28;20221;-62
2021/08/16 09:23:47;;;;;;;6.90;4.88;;;45.60;27.80;;;;;;6353865;28;20228;-64
2021/08/16 09:26:50;;;;;;;5.57;5.18;;;44.80;28.90;;;;;;6331275;27;20284;-63
2021/08/16 09:30:00;;;;;;;5.25;4.80;;;44.00;29.40;;;;;;6328809;28;20237;-64
2021/08/16 09:33:14;;;;;;;6.18;4.82;;;42.90;30.90;;;;;;6317364;28;20230;-63
2021/08/16 09:36:17;;;;;;;5.55;5.07;;;41.90;31.90;;;;;;6305365;28;20222;-63
2021/08/16 09:39:22;;;;;;;5.47;4.97;;;41.20;32.70;;;;;;6328120;28;20267;-64
2021/08/16 09:42:27;;;;;;;6.03;5.53;;;40.50;33.60;;;;;;6328586;28;20206;-63
2021/08/16 09:45:31;;;;;;;6.55;5.88;;;39.60;34.80;;;;;;6328623;28;20248;-63
2021/08/16 09:48:34;;;;;;;5.07;4.68;;;38.60;35.70;;;;;;6308101;28;20241;-64
2021/08/16 09:51:39;;;;;;;5.63;5.15;;;38.30;36.40;;;;;;6323498;28;20234;-64
2021/08/16 09:54:45;;;;;;;6.05;4.30;;;38.20;36.50;;;;;;6327979;28;20221;-64
2021/08/16 09:57:50;;;;;;;6.20;5.70;;;38.00;37.30;;;;;;6327345;28;20237;-63
2021/08/16 10:00:54;;;;;;;5.45;4.95;;;37.10;39.10;;;;;;6327588;28;20225;-64
2021/08/16 10:03:57;;;;;;;6.72;6.00;;;36.50;40.20;;;;;;6327891;28;20301;-64
2021/08/16 10:07:02;;;;;;;8.38;5.95;;;36.10;41.10;;;;;;6326470;28;20443;-65
2021/08/16 10:10:24;;;;;;;6.45;5.95;;;35.90;41.80;;;;;;6325623;28;20238;-65
2021/08/16 10:13:34;;;;;;;6.65;6.05;;;35.40;42.90;;;;;;6327721;28;20685;-62
2021/08/16 10:16:43;;;;;;;6.72;6.03;;;35.20;44.00;;;;;;6336754;28;20258;-62
2021/08/16 10:19:47;;;;;;;7.22;5.70;;;34.90;44.60;;;;;;6337343;28;20222;-61
2021/08/16 10:22:50;;;;;;;8.48;6.70;;;34.50;45.70;;;;;;6334888;28;20574;-61
2021/08/16 10:25:56;;;;;;;7.05;6.55;;;34.20;46.50;;;;;;6334413;28;20549;-61
2021/08/16 10:29:01;;;;;;;6.95;6.25;;;33.90;47.20;;;;;;6334447;28;20225;-61
2021/08/16 10:32:08;;;;;;;8.10;6.53;;;33.40;48.80;;;;;;6338710;28;20221;-61
2021/08/16 10:35:14;;;;;;;8.93;6.82;;;33.30;49.60;;;;;;6339178;28;20228;-61
2021/08/16 10:38:19;;;;;;;8.63;7.25;;;33.00;50.50;;;;;;6333763;28;20244;-61
2021/08/16 10:41:29;;;;;;;7.05;6.53;;;32.70;51.70;;;;;;6337996;28;20217;-61
2021/08/16 10:44:38;;;;;;;7.90;7.25;;;33.00;51.10;;;;;;6334227;28;20347;-65
2021/08/16 10:47:42;;;;;;;7.13;6.53;;;33.20;51.30;;;;;;6342039;27;20679;-63
2021/08/16 10:50:45;;;;;;;7.70;7.00;;;33.00;51.70;;;;;;6345531;28;20709;-62
2021/08/16 10:53:48;;;;;;;9.15;7.13;;;32.70;52.30;;;;;;6325378;28;20788;-62
2021/08/16 10:56:54;;;;;;;7.57;6.90;;;32.40;53.10;;;;;;6325508;28;20233;-64
2021/08/16 10:59:58;;;;;;;8.27;7.53;;;32.10;54.30;;;;;;6321304;28;20226;-64
2021/08/16 11:03:01;;;;;;;9.45;7.55;;;31.90;54.70;;;;;;6300550;28;20241;-63
2021/08/16 11:06:06;;;;;;;7.30;6.70;;;31.70;55.50;;;;;;6300459;28;20668;-63
2021/08/16 11:09:09;;;;;;;9.25;7.13;;;31.70;56.00;;;;;;6300507;28;20234;-63
2021/08/16 11:12:14;;;;;;;7.55;6.95;;;31.60;56.10;;;;;;6304163;28;20696;-61
2021/08/16 11:15:18;;;;;;;7.28;6.68;;;31.80;56.70;;;;;;6328758;28;20631;-63
2021/08/16 11:18:22;;;;;;;7.53;6.82;;;32.10;56.20;;;;;;6332627;28;20217;-60
2021/08/16 11:21:29;;;;;;;7.20;6.60;;;32.40;55.50;;;;;;6316288;28;20635;-61
2021/08/16 11:24:36;;;;;;;7.85;7.13;;;32.50;55.50;;;;;;6305845;28;20222;-61
2021/08/16 11:27:42;;;;;;;7.45;6.85;;;32.70;54.60;;;;;;6313121;28;20237;-61
2021/08/16 11:30:45;;;;;;;7.82;7.13;;;32.70;54.40;;;;;;6299542;28;20675;-61
2021/08/16 11:33:49;;;;;;;7.60;7.00;;;32.80;54.30;;;;;;6298846;28;20229;-61
2021/08/16 11:36:52;;;;;;;7.82;7.13;;;33.00;54.00;;;;;;6315540;28;20238;-61
2021/08/16 11:39:56;;;;;;;8.30;7.65;;;33.00;54.30;;;;;;6316633;28;20245;-61
2021/08/16 11:43:26;;;;;;;9.32;7.13;;;33.00;54.90;;;;;;6298509;28;20230;-61
2021/08/16 11:46:34;;;;;;;8.30;7.43;;;32.80;55.60;;;;;;6300850;28;20237;-61
2021/08/16 11:49:39;;;;;;;9.88;7.13;;;32.20;56.70;;;;;;6325003;28;20304;-62
2021/08/16 11:52:42;;;;;;;7.72;7.13;;;32.10;56.80;;;;;;6336053;28;20233;-61
2021/08/16 11:55:45;;;;;;;8.00;7.25;;;31.80;57.50;;;;;;6324674;28;20283;-61
2021/08/16 11:58:50;;;;;;;9.70;7.53;;;32.00;57.70;;;;;;6324564;28;20233;-61
2021/08/16 12:01:56;;;;;;;7.80;7.15;;;32.00;57.50;;;;;;6324728;28;20252;-61
2021/08/16 12:05:00;;;;;;;7.32;6.65;;;32.00;57.70;;;;;;6324933;28;20225;-60
2021/08/16 12:08:04;;;;;;;7.38;6.78;;;31.80;58.00;;;;;;6324265;28;20236;-63
2021/08/16 12:11:11;;;;;;;8.65;7.85;;;31.70;58.40;;;;;;6324619;28;20559;-63
2021/08/16 12:14:15;;;;;;;7.82;6.75;;;31.40;59.00;;;;;;6324100;28;20240;-63
2021/08/16 12:17:25;;;;;;;8.18;7.20;;;31.20;59.50;;;;;;6332728;28;20236;-64
2021/08/16 12:20:39;;;;;;;8.32;7.38;;;31.00;60.40;;;;;;6331933;28;20225;-62
2021/08/16 12:23:42;;;;;;;11.48;7.93;;;30.80;60.80;;;;;;6328508;28;20233;-64
2021/08/16 12:26:45;;;;;;;9.25;8.35;;;30.50;61.40;;;;;;6327201;28;20233;-61
2021/08/16 12:29:50;;;;;;;9.87;8.87;;;30.30;62.00;;;;;;6323981;28;20229;-65
2021/08/16 12:32:53;;;;;;;9.60;7.87;;;29.90;64.20;;;;;;6323606;28;20577;-65
2021/08/16 12:35:58;;;;;;;10.13;8.20;;;29.70;66.50;;;;;;6324259;28;20535;-64
2021/08/16 12:39:05;;;;;;;11.03;7.77;;;29.30;66.10;;;;;;6323320;28;20657;-66
2021/08/16 12:42:28;;;;;;;7.97;7.37;;;29.00;69.50;;;;;;6298947;28;20256;-65
2021/08/16 12:45:33;;;;;;;9.53;7.40;;;28.60;71.70;;;;;;6297984;28;20242;-65
2021/08/16 12:48:41;;;;;;;8.37;6.80;;;28.60;72.80;;;;;;6298392;28;20241;-63
2021/08/16 12:51:45;;;;;;;7.77;7.00;;;28.50;75.00;;;;;;6298406;28;20683;-64
2021/08/16 12:54:48;;;;;;;11.50;7.80;;;28.50;75.80;;;;;;6323656;28;20291;-66
2021/08/16 12:57:51;;;;;;;7.43;6.73;;;28.60;76.10;;;;;;6323528;28;20670;-65
2021/08/16 13:00:58;;;;;;;8.00;7.20;;;28.80;76.70;;;;;;6323957;28;20279;-65
2021/08/16 13:04:02;;;;;;;8.90;7.67;;;28.90;77.50;;;;;;6323748;28;20312;-66
2021/08/16 13:07:05;;;;;;;8.73;7.93;;;28.80;77.80;;;;;;6324275;28;20240;-66
2021/08/16 13:10:10;;;;;;;8.20;7.60;;;28.90;78.80;;;;;;6321922;28;20221;-64
2021/08/16 13:13:13;;;;;;;8.33;7.60;;;29.00;79.70;;;;;;6319321;28;20249;-64
2021/08/16 13:16:17;;;;;;;7.40;6.70;;;29.30;78.20;;;;;;6317339;28;20254;-66
2021/08/16 13:19:40;;;;;;;8.93;8.07;;;29.70;78.10;;;;;;6314927;28;20308;-66
2021/08/16 13:22:43;;;;;;;8.87;8.07;;;29.80;76.40;;;;;;6298403;28;20226;-66
2021/08/16 13:25:47;;;;;;;10.03;8.00;;;29.80;76.10;;;;;;6311417;28;20230;-66
2021/08/16 13:28:50;;;;;;;7.87;7.27;;;29.90;76.90;;;;;;6320088;28;20229;-66
2021/08/16 13:31:55;;;;;;;8.80;7.93;;;30.00;75.90;;;;;;6320770;28;20248;-65
2021/08/16 13:34:58;;;;;;;10.60;7.80;;;30.30;75.50;;;;;;6300412;28;20270;-65
2021/08/16 13:38:01;;;;;;;8.53;7.57;;;30.50;75.10;;;;;;6295465;28;20242;-66
2021/08/16 13:41:04;;;;;;;8.40;7.60;;;30.20;75.30;;;;;;6295855;28;20234;-65
2021/08/16 13:44:08;;;;;;;8.50;7.70;;;30.00;76.60;;;;;;6297173;28;20233;-66
2021/08/16 13:47:13;;;;;;;8.17;7.37;;;30.10;77.20;;;;;;6306238;28;20229;-66
2021/08/16 13:50:16;;;;;;;8.63;7.93;;;30.20;76.70;;;;;;6317464;28;20222;-66
2021/08/16 13:53:19;;;;;;;7.83;6.97;;;30.30;75.90;;;;;;6297886;28;20241;-66
2021/08/16 13:56:22;;;;;;;7.70;6.90;;;30.30;75.00;;;;;;6297720;28;20241;-65
2021/08/16 13:59:25;;;;;;;7.40;6.80;;;30.30;74.90;;;;;;6301005;28;20237;-66
2021/08/16 14:02:32;;;;;;;9.17;8.17;;;30.30;75.30;;;;;;6302822;28;20427;-66
2021/08/16 14:05:36;;;;;;;8.87;7.97;;;30.10;75.20;;;;;;6317745;28;20237;-67
2021/08/16 14:08:39;;;;;;;8.57;7.67;;;30.20;75.20;;;;;;6326821;28;20251;-67
2021/08/16 14:11:44;;;;;;;8.00;7.30;;;30.00;75.70;;;;;;6326636;28;20367;-67
2021/08/16 14:14:47;;;;;;;8.47;7.50;;;29.70;75.50;;;;;;6327004;28;20225;-67
2021/08/16 14:17:51;;;;;;;9.43;7.50;;;29.60;76.70;;;;;;6325320;28;20229;-66
2021/08/16 14:20:55;;;;;;;9.00;7.60;;;29.60;77.20;;;;;;6327073;28;20221;-66
2021/08/16 14:23:58;;;;;;;8.83;8.03;;;29.50;77.90;;;;;;6328546;28;20233;-67
2021/08/16 14:27:02;;;;;;;8.70;7.90;;;29.60;78.00;;;;;;6328438;28;20221;-65
2021/08/16 14:30:06;;;;;;;8.70;7.87;;;29.60;78.10;;;;;;6326161;28;20702;-66
2021/08/16 14:33:11;;;;;;;8.33;7.50;;;29.90;77.60;;;;;;6317831;28;20248;-66
2021/08/16 14:36:15;;;;;;;8.00;7.23;;;30.10;77.20;;;;;;6325481;28;20225;-65
2021/08/16 14:39:18;;;;;;;8.73;7.97;;;30.30;76.80;;;;;;6325191;28;20205;-64
2021/08/16 14:42:21;;;;;;;8.55;7.85;;;30.60;76.40;;;;;;6301697;28;20202;-65
2021/08/16 14:45:25;;;;;;;8.80;7.90;;;30.60;75.50;;;;;;6301271;28;20206;-66
2021/08/16 14:48:29;;;;;;;8.87;8.07;;;30.60;74.50;;;;;;6320115;28;20660;-66
2021/08/16 14:51:34;;;;;;;8.83;7.93;;;30.50;74.10;;;;;;6326337;28;20202;-66
2021/08/16 14:54:38;;;;;;;8.32;7.43;;;30.40;72.60;;;;;;6326206;28;20342;-66
2021/08/16 14:57:42;;;;;;;9.13;8.17;;;30.30;70.20;;;;;;6325794;28;20234;-64
2021/08/16 15:00:45;;;;;;;8.67;7.80;;;30.30;71.00;;;;;;6325790;28;20243;-64
2021/08/16 15:03:50;;;;;;;8.10;7.30;;;30.20;70.70;;;;;;6324179;28;20217;-64
2021/08/16 15:06:54;;;;;;;14.03;9.07;;;30.20;72.50;;;;;;6324348;28;20541;-64
2021/08/16 15:09:57;;;;;;;10.40;8.73;;;30.10;72.50;;;;;;6321722;28;20315;-64
2021/08/16 15:13:01;;;;;;;9.30;8.50;;;30.10;72.90;;;;;;6324810;28;20225;-63
2021/08/16 15:16:05;;;;;;;10.00;8.70;;;30.10;72.80;;;;;;6324976;28;20585;-63
2021/08/16 15:19:10;;;;;;;8.43;7.53;;;30.10;72.90;;;;;;6326137;28;20241;-64
2021/08/16 15:22:14;;;;;;;10.37;8.30;;;30.20;73.90;;;;;;6324936;28;20225;-65
2021/08/16 15:25:17;;;;;;;10.53;9.40;;;30.20;73.70;;;;;;6323675;28;20679;-68
2021/08/16 15:28:21;;;;;;;10.40;8.57;;;30.20;74.20;;;;;;6324097;28;20234;-66
2021/08/16 15:31:24;;;;;;;11.73;9.40;;;30.10;75.10;;;;;;6347341;28;20300;-67
2021/08/16 15:34:28;;;;;;;12.03;9.40;;;30.10;75.10;;;;;;6341592;28;20303;-66
2021/08/16 15:37:32;;;;;;;9.20;8.17;;;30.10;75.20;;;;;;6350806;28;20225;-67
2021/08/16 15:40:37;;;;;;;9.60;8.80;;;30.30;75.80;;;;;;6351049;28;20220;-66
2021/08/16 15:43:46;;;;;;;9.83;8.90;;;30.40;75.40;;;;;;6350575;28;20647;-66
2021/08/16 15:46:49;;;;;;;9.27;8.43;;;30.50;75.00;;;;;;6345350;28;20226;-65
2021/08/16 15:49:53;;;;;;;12.00;9.50;;;30.40;73.50;;;;;;6350298;28;20221;-61
2021/08/16 15:52:57;;;;;;;10.40;8.60;;;30.30;73.50;;;;;;6346392;28;20225;-61
2021/08/16 15:56:00;;;;;;;9.47;8.60;;;30.40;74.10;;;;;;6350162;28;20565;-60
2021/08/16 15:59:03;;;;;;;9.57;8.60;;;30.40;74.10;;;;;;6343893;27;20558;-62